sensor_id;sensor_type;location;lat;lon;timestamp;temperature;humidity
9542;DHT22;4809;48.224;8.572;2023-04-12T00:01:57;6.80;99.90
9542;DHT22;4809;48.224;8.572;2023-04-12T00:04:22;6.80;99.90
9542;DHT22;4809;48.224;8.572;2023-04-12T00:06:53;6.80;99.90
9542;DHT22;4809;48.224;8.572;2023-04-12T00:09:19;6.80;99.90
9542;DHT22;4809;48.224;8.572;2023-04-12T00:11:45;6.80;99.90
9542;DHT22;4809;48.224;8.572;2023-04-12T00:14:10;6.80;99.90
9542;DHT22;4809;48.224;8.572;2023-04-12T00:16:36;6.80;99.90
9542;DHT22;4809;48.224;8.572;2023-04-12T00:19:03;6.70;99.90
9542;DHT22;4809;48.224;8.572;2023-04-12T00:21:29;6.70;99.90
9542;DHT22;4809;48.224;8.572;2023-04-12T00:23:55;6.70;99.90
9542;DHT22;4809;48.224;8.572;2023-04-12T00:26:21;6.70;99.90
9542;DHT22;4809;48.224;8.572;2023-04-12T00:28:47;6.70;99.90
9542;DHT22;4809;48.224;8.572;2023-04-12T00:31:12;6.70;99.90
9542;DHT22;4809;48.224;8.572;2023-04-12T00:33:38;6.70;99.90
9542;DHT22;4809;48.224;8.572;2023-04-12T00:36:04;6.70;99.90
9542;DHT22;4809;48.224;8.572;2023-04-12T00:38:30;6.60;99.90
9542;DHT22;4809;48.224;8.572;2023-04-12T00:40:56;6.60;99.90
9542;DHT22;4809;48.224;8.572;2023-04-12T00:43:21;6.60;99.90
9542;DHT22;4809;48.224;8.572;2023-04-12T00:45:48;6.50;99.90
9542;DHT22;4809;48.224;8.572;2023-04-12T00:48:14;6.50;99.90
9542;DHT22;4809;48.224;8.572;2023-04-12T00:50:41;6.50;99.90
9542;DHT22;4809;48.224;8.572;2023-04-12T00:53:10;6.50;99.90
9542;DHT22;4809;48.224;8.572;2023-04-12T00:55:39;6.50;99.90
9542;DHT22;4809;48.224;8.572;2023-04-12T00:58:05;6.60;99.90
9542;DHT22;4809;48.224;8.572;2023-04-12T01:00:32;6.60;99.90
9542;DHT22;4809;48.224;8.572;2023-04-12T01:02:58;6.60;99.90
9542;DHT22;4809;48.224;8.572;2023-04-12T01:05:27;6.60;99.90
9542;DHT22;4809;48.224;8.572;2023-04-12T01:10:56;6.60;99.90
9542;DHT22;4809;48.224;8.572;2023-04-12T01:13:48;6.60;99.90
9542;DHT22;4809;48.224;8.572;2023-04-12T01:16:41;6.60;99.90
9542;DHT22;4809;48.224;8.572;2023-04-12T01:19:56;6.60;99.90
9542;DHT22;4809;48.224;8.572;2023-04-12T01:27:56;6.60;99.90
9542;DHT22;4809;48.224;8.572;2023-04-12T01:30:25;6.60;99.90
9542;DHT22;4809;48.224;8.572;2023-04-12T01:32:54;6.60;99.90
9542;DHT22;4809;48.224;8.572;2023-04-12T01:35:23;6.60;99.90
9542;DHT22;4809;48.224;8.572;2023-04-12T01:37:51;6.70;99.90
9542;DHT22;4809;48.224;8.572;2023-04-12T01:40:17;6.70;99.90
9542;DHT22;4809;48.224;8.572;2023-04-12T01:42:43;6.60;99.90
9542;DHT22;4809;48.224;8.572;2023-04-12T01:45:09;6.60;99.90
9542;DHT22;4809;48.224;8.572;2023-04-12T01:47:35;6.60;99.90
9542;DHT22;4809;48.224;8.572;2023-04-12T01:50:21;6.50;99.90
9542;DHT22;4809;48.224;8.572;2023-04-12T01:53:17;6.50;99.90
9542;DHT22;4809;48.224;8.572;2023-04-12T01:55:46;6.50;99.90
9542;DHT22;4809;48.224;8.572;2023-04-12T01:58:16;6.50;99.90
9542;DHT22;4809;48.224;8.572;2023-04-12T02:00:45;6.50;99.90
9542;DHT22;4809;48.224;8.572;2023-04-12T02:03:11;6.50;99.90
9542;DHT22;4809;48.224;8.572;2023-04-12T02:05:38;6.50;99.90
9542;DHT22;4809;48.224;8.572;2023-04-12T02:08:04;6.40;99.90
9542;DHT22;4809;48.224;8.572;2023-04-12T02:10:31;6.40;99.90
9542;DHT22;4809;48.224;8.572;2023-04-12T02:13:01;6.40;99.90
9542;DHT22;4809;48.224;8.572;2023-04-12T02:15:27;6.40;99.90
9542;DHT22;4809;48.224;8.572;2023-04-12T02:17:53;6.40;99.90
9542;DHT22;4809;48.224;8.572;2023-04-12T02:20:20;6.30;99.90
9542;DHT22;4809;48.224;8.572;2023-04-12T02:22:47;6.40;99.90
9542;DHT22;4809;48.224;8.572;2023-04-12T02:25:13;6.40;99.90
9542;DHT22;4809;48.224;8.572;2023-04-12T02:27:40;6.40;99.90
9542;DHT22;4809;48.224;8.572;2023-04-12T02:30:06;6.40;99.90
9542;DHT22;4809;48.224;8.572;2023-04-12T02:32:31;6.40;99.90
9542;DHT22;4809;48.224;8.572;2023-04-12T02:34:57;6.40;99.90
9542;DHT22;4809;48.224;8.572;2023-04-12T02:37:25;6.40;99.90
9542;DHT22;4809;48.224;8.572;2023-04-12T02:39:51;6.40;99.90
9542;DHT22;4809;48.224;8.572;2023-04-12T02:42:21;6.40;99.90
9542;DHT22;4809;48.224;8.572;2023-04-12T02:44:47;6.40;99.90
9542;DHT22;4809;48.224;8.572;2023-04-12T02:47:13;6.40;99.90
9542;DHT22;4809;48.224;8.572;2023-04-12T02:49:39;6.40;99.90
9542;DHT22;4809;48.224;8.572;2023-04-12T02:52:05;6.40;99.90
9542;DHT22;4809;48.224;8.572;2023-04-12T02:54:30;6.40;99.90
9542;DHT22;4809;48.224;8.572;2023-04-12T02:56:56;6.40;99.90
9542;DHT22;4809;48.224;8.572;2023-04-12T02:59:21;6.40;99.90
9542;DHT22;4809;48.224;8.572;2023-04-12T03:01:49;6.40;99.90
9542;DHT22;4809;48.224;8.572;2023-04-12T03:04:15;6.40;99.90
9542;DHT22;4809;48.224;8.572;2023-04-12T03:06:41;6.40;99.90
9542;DHT22;4809;48.224;8.572;2023-04-12T03:09:17;6.30;99.90
9542;DHT22;4809;48.224;8.572;2023-04-12T03:11:46;6.30;99.90
9542;DHT22;4809;48.224;8.572;2023-04-12T03:14:11;6.30;99.90
9542;DHT22;4809;48.224;8.572;2023-04-12T03:16:37;6.30;99.90
9542;DHT22;4809;48.224;8.572;2023-04-12T03:19:02;6.30;99.90
9542;DHT22;4809;48.224;8.572;2023-04-12T03:21:30;6.30;99.90
9542;DHT22;4809;48.224;8.572;2023-04-12T03:23:57;6.30;99.90
9542;DHT22;4809;48.224;8.572;2023-04-12T03:26:23;6.40;99.90
9542;DHT22;4809;48.224;8.572;2023-04-12T03:28:54;6.30;99.90
9542;DHT22;4809;48.224;8.572;2023-04-12T03:31:19;6.30;99.90
9542;DHT22;4809;48.224;8.572;2023-04-12T03:33:46;6.30;99.90
9542;DHT22;4809;48.224;8.572;2023-04-12T03:36:11;6.20;99.90
9542;DHT22;4809;48.224;8.572;2023-04-12T03:38:37;6.30;99.90
9542;DHT22;4809;48.224;8.572;2023-04-12T03:41:03;6.30;99.90
9542;DHT22;4809;48.224;8.572;2023-04-12T03:43:28;6.30;99.90
9542;DHT22;4809;48.224;8.572;2023-04-12T03:46:03;6.30;99.90
9542;DHT22;4809;48.224;8.572;2023-04-12T03:48:29;6.30;99.90
9542;DHT22;4809;48.224;8.572;2023-04-12T03:50:55;6.30;99.90
9542;DHT22;4809;48.224;8.572;2023-04-12T03:53:26;6.30;99.90
9542;DHT22;4809;48.224;8.572;2023-04-12T03:55:52;6.30;99.90
9542;DHT22;4809;48.224;8.572;2023-04-12T03:58:19;6.30;99.90
9542;DHT22;4809;48.224;8.572;2023-04-12T04:00:45;6.30;99.90
9542;DHT22;4809;48.224;8.572;2023-04-12T04:03:14;6.30;99.90
9542;DHT22;4809;48.224;8.572;2023-04-12T04:05:39;6.30;99.90
9542;DHT22;4809;48.224;8.572;2023-04-12T04:08:05;6.30;99.90
9542;DHT22;4809;48.224;8.572;2023-04-12T04:10:33;6.30;99.90
9542;DHT22;4809;48.224;8.572;2023-04-12T04:12:59;6.20;99.90
9542;DHT22;4809;48.224;8.572;2023-04-12T04:15:25;6.20;99.90
9542;DHT22;4809;48.224;8.572;2023-04-12T04:17:51;6.20;99.90
9542;DHT22;4809;48.224;8.572;2023-04-12T04:20:17;6.20;99.90
9542;DHT22;4809;48.224;8.572;2023-04-12T04:22:43;6.20;99.90
9542;DHT22;4809;48.224;8.572;2023-04-12T04:25:13;6.20;99.90
9542;DHT22;4809;48.224;8.572;2023-04-12T04:27:42;6.20;99.90
9542;DHT22;4809;48.224;8.572;2023-04-12T04:30:10;6.30;99.90
9542;DHT22;4809;48.224;8.572;2023-04-12T04:32:39;6.20;99.90
9542;DHT22;4809;48.224;8.572;2023-04-12T04:35:06;6.30;99.90
9542;DHT22;4809;48.224;8.572;2023-04-12T04:37:32;6.30;99.90
9542;DHT22;4809;48.224;8.572;2023-04-12T04:40:00;6.30;99.90
9542;DHT22;4809;48.224;8.572;2023-04-12T04:42:33;6.30;99.90
9542;DHT22;4809;48.224;8.572;2023-04-12T04:44:58;6.30;99.90
9542;DHT22;4809;48.224;8.572;2023-04-12T04:47:29;6.40;99.90
9542;DHT22;4809;48.224;8.572;2023-04-12T04:49:58;6.40;99.90
9542;DHT22;4809;48.224;8.572;2023-04-12T04:52:24;6.40;99.90
9542;DHT22;4809;48.224;8.572;2023-04-12T04:54:50;6.40;99.90
9542;DHT22;4809;48.224;8.572;2023-04-12T04:57:16;6.40;99.90
9542;DHT22;4809;48.224;8.572;2023-04-12T04:59:42;6.40;99.90
9542;DHT22;4809;48.224;8.572;2023-04-12T05:02:09;6.50;99.90
9542;DHT22;4809;48.224;8.572;2023-04-12T05:04:36;6.40;99.90
9542;DHT22;4809;48.224;8.572;2023-04-12T05:07:02;6.40;99.90
9542;DHT22;4809;48.224;8.572;2023-04-12T05:09:27;6.50;99.90
9542;DHT22;4809;48.224;8.572;2023-04-12T05:11:53;6.50;99.90
9542;DHT22;4809;48.224;8.572;2023-04-12T05:14:19;6.50;99.90
9542;DHT22;4809;48.224;8.572;2023-04-12T05:16:45;6.50;99.90
9542;DHT22;4809;48.224;8.572;2023-04-12T05:19:10;6.50;99.90
9542;DHT22;4809;48.224;8.572;2023-04-12T05:21:36;6.50;99.90
9542;DHT22;4809;48.224;8.572;2023-04-12T05:24:01;6.60;99.90
9542;DHT22;4809;48.224;8.572;2023-04-12T05:26:27;6.60;99.90
9542;DHT22;4809;48.224;8.572;2023-04-12T05:28:53;6.50;99.90
9542;DHT22;4809;48.224;8.572;2023-04-12T05:31:18;6.60;99.90
9542;DHT22;4809;48.224;8.572;2023-04-12T05:33:44;6.60;99.90
9542;DHT22;4809;48.224;8.572;2023-04-12T05:36:10;6.70;99.90
9542;DHT22;4809;48.224;8.572;2023-04-12T05:38:36;6.70;99.90
9542;DHT22;4809;48.224;8.572;2023-04-12T05:41:02;6.80;99.90
9542;DHT22;4809;48.224;8.572;2023-04-12T05:43:29;6.80;99.90
9542;DHT22;4809;48.224;8.572;2023-04-12T05:45:54;6.80;99.90
9542;DHT22;4809;48.224;8.572;2023-04-12T05:48:20;6.90;99.90
9542;DHT22;4809;48.224;8.572;2023-04-12T05:50:50;6.90;99.90
9542;DHT22;4809;48.224;8.572;2023-04-12T05:53:16;6.90;99.90
9542;DHT22;4809;48.224;8.572;2023-04-12T05:55:42;6.90;99.90
9542;DHT22;4809;48.224;8.572;2023-04-12T05:58:07;6.90;99.90
9542;DHT22;4809;48.224;8.572;2023-04-12T06:00:34;6.90;99.90
9542;DHT22;4809;48.224;8.572;2023-04-12T06:03:00;6.90;99.90
9542;DHT22;4809;48.224;8.572;2023-04-12T06:05:27;6.90;99.90
9542;DHT22;4809;48.224;8.572;2023-04-12T06:07:52;7.00;99.90
9542;DHT22;4809;48.224;8.572;2023-04-12T06:10:18;7.00;99.90
9542;DHT22;4809;48.224;8.572;2023-04-12T06:12:44;6.90;99.90
9542;DHT22;4809;48.224;8.572;2023-04-12T06:15:10;6.90;99.90
9542;DHT22;4809;48.224;8.572;2023-04-12T06:17:36;7.00;99.90
9542;DHT22;4809;48.224;8.572;2023-04-12T06:20:03;6.90;99.90
9542;DHT22;4809;48.224;8.572;2023-04-12T06:22:35;6.90;99.90
9542;DHT22;4809;48.224;8.572;2023-04-12T06:25:01;6.90;99.90
9542;DHT22;4809;48.224;8.572;2023-04-12T06:27:27;6.90;99.90
9542;DHT22;4809;48.224;8.572;2023-04-12T06:29:52;7.00;99.90
9542;DHT22;4809;48.224;8.572;2023-04-12T06:32:18;7.00;99.90
9542;DHT22;4809;48.224;8.572;2023-04-12T06:34:44;7.10;99.90
9542;DHT22;4809;48.224;8.572;2023-04-12T06:37:10;7.10;99.90
9542;DHT22;4809;48.224;8.572;2023-04-12T06:39:35;7.20;99.90
9542;DHT22;4809;48.224;8.572;2023-04-12T06:42:01;7.30;99.90
9542;DHT22;4809;48.224;8.572;2023-04-12T06:44:27;7.40;99.90
9542;DHT22;4809;48.224;8.572;2023-04-12T06:46:53;7.40;99.90
9542;DHT22;4809;48.224;8.572;2023-04-12T06:49:18;7.50;99.90
9542;DHT22;4809;48.224;8.572;2023-04-12T06:51:44;7.50;99.90
9542;DHT22;4809;48.224;8.572;2023-04-12T06:54:11;7.60;99.90
9542;DHT22;4809;48.224;8.572;2023-04-12T06:56:36;7.60;99.90
9542;DHT22;4809;48.224;8.572;2023-04-12T06:59:02;7.70;99.90
9542;DHT22;4809;48.224;8.572;2023-04-12T07:01:28;7.70;99.90
9542;DHT22;4809;48.224;8.572;2023-04-12T07:03:53;7.80;99.90
9542;DHT22;4809;48.224;8.572;2023-04-12T07:06:19;7.80;99.90
9542;DHT22;4809;48.224;8.572;2023-04-12T07:08:45;7.80;99.90
9542;DHT22;4809;48.224;8.572;2023-04-12T07:11:10;7.90;99.90
9542;DHT22;4809;48.224;8.572;2023-04-12T07:13:36;8.00;99.90
9542;DHT22;4809;48.224;8.572;2023-04-12T07:16:02;8.20;99.90
9542;DHT22;4809;48.224;8.572;2023-04-12T07:18:28;8.30;99.90
9542;DHT22;4809;48.224;8.572;2023-04-12T07:20:54;8.40;99.90
9542;DHT22;4809;48.224;8.572;2023-04-12T07:23:21;8.50;99.90
9542;DHT22;4809;48.224;8.572;2023-04-12T07:25:47;8.60;99.90
9542;DHT22;4809;48.224;8.572;2023-04-12T07:28:13;8.60;99.90
9542;DHT22;4809;48.224;8.572;2023-04-12T07:30:39;8.50;99.90
9542;DHT22;4809;48.224;8.572;2023-04-12T07:33:05;8.60;99.90
9542;DHT22;4809;48.224;8.572;2023-04-12T07:35:31;8.70;99.90
9542;DHT22;4809;48.224;8.572;2023-04-12T07:37:57;8.70;99.90
9542;DHT22;4809;48.224;8.572;2023-04-12T07:40:23;8.70;99.90
9542;DHT22;4809;48.224;8.572;2023-04-12T07:42:49;8.90;99.90
9542;DHT22;4809;48.224;8.572;2023-04-12T07:45:15;8.90;99.90
9542;DHT22;4809;48.224;8.572;2023-04-12T07:47:41;9.00;99.90
9542;DHT22;4809;48.224;8.572;2023-04-12T07:50:07;9.10;99.90
9542;DHT22;4809;48.224;8.572;2023-04-12T07:52:33;9.30;99.90
9542;DHT22;4809;48.224;8.572;2023-04-12T07:54:59;9.40;99.90
9542;DHT22;4809;48.224;8.572;2023-04-12T07:57:25;9.60;99.90
9542;DHT22;4809;48.224;8.572;2023-04-12T07:59:51;9.50;99.90
9542;DHT22;4809;48.224;8.572;2023-04-12T08:02:17;9.30;99.90
9542;DHT22;4809;48.224;8.572;2023-04-12T08:04:58;9.40;99.90
9542;DHT22;4809;48.224;8.572;2023-04-12T08:07:23;9.40;99.90
9542;DHT22;4809;48.224;8.572;2023-04-12T08:09:51;9.20;99.90
9542;DHT22;4809;48.224;8.572;2023-04-12T08:12:17;9.10;99.90
9542;DHT22;4809;48.224;8.572;2023-04-12T08:14:42;9.20;99.90
9542;DHT22;4809;48.224;8.572;2023-04-12T08:17:09;9.30;99.90
9542;DHT22;4809;48.224;8.572;2023-04-12T08:19:35;9.50;99.90
9542;DHT22;4809;48.224;8.572;2023-04-12T08:22:02;9.60;99.90
9542;DHT22;4809;48.224;8.572;2023-04-12T08:24:27;9.60;99.90
9542;DHT22;4809;48.224;8.572;2023-04-12T08:26:53;9.50;99.90
9542;DHT22;4809;48.224;8.572;2023-04-12T08:29:18;9.60;99.90
9542;DHT22;4809;48.224;8.572;2023-04-12T08:31:45;9.70;99.90
9542;DHT22;4809;48.224;8.572;2023-04-12T08:34:11;9.90;99.90
9542;DHT22;4809;48.224;8.572;2023-04-12T08:36:37;10.20;99.90
9542;DHT22;4809;48.224;8.572;2023-04-12T08:39:02;10.40;99.90
9542;DHT22;4809;48.224;8.572;2023-04-12T08:41:28;10.70;99.90
9542;DHT22;4809;48.224;8.572;2023-04-12T08:43:54;10.70;99.90
9542;DHT22;4809;48.224;8.572;2023-04-12T08:46:22;10.40;99.90
9542;DHT22;4809;48.224;8.572;2023-04-12T08:48:50;10.30;99.90
9542;DHT22;4809;48.224;8.572;2023-04-12T08:51:19;10.20;99.90
9542;DHT22;4809;48.224;8.572;2023-04-12T08:53:45;10.10;99.90
9542;DHT22;4809;48.224;8.572;2023-04-12T08:56:12;10.00;99.90
9542;DHT22;4809;48.224;8.572;2023-04-12T08:58:44;10.00;99.90
9542;DHT22;4809;48.224;8.572;2023-04-12T09:01:20;10.00;99.90
9542;DHT22;4809;48.224;8.572;2023-04-12T09:03:46;9.90;99.90
9542;DHT22;4809;48.224;8.572;2023-04-12T09:06:12;9.90;99.90
9542;DHT22;4809;48.224;8.572;2023-04-12T09:08:52;9.90;99.90
9542;DHT22;4809;48.224;8.572;2023-04-12T09:11:26;9.90;99.90
9542;DHT22;4809;48.224;8.572;2023-04-12T09:13:55;9.90;99.90
9542;DHT22;4809;48.224;8.572;2023-04-12T09:16:38;10.00;99.90
9542;DHT22;4809;48.224;8.572;2023-04-12T09:19:05;10.00;99.90
9542;DHT22;4809;48.224;8.572;2023-04-12T09:21:32;10.00;99.90
9542;DHT22;4809;48.224;8.572;2023-04-12T09:24:06;10.00;99.90
9542;DHT22;4809;48.224;8.572;2023-04-12T09:26:36;10.10;99.90
9542;DHT22;4809;48.224;8.572;2023-04-12T09:29:03;10.10;99.90
9542;DHT22;4809;48.224;8.572;2023-04-12T09:31:29;10.20;99.90
9542;DHT22;4809;48.224;8.572;2023-04-12T09:34:15;10.20;99.90
9542;DHT22;4809;48.224;8.572;2023-04-12T09:36:42;10.20;99.90
9542;DHT22;4809;48.224;8.572;2023-04-12T09:39:07;10.20;99.90
9542;DHT22;4809;48.224;8.572;2023-04-12T09:41:33;10.30;99.90
9542;DHT22;4809;48.224;8.572;2023-04-12T09:44:00;10.30;99.90
9542;DHT22;4809;48.224;8.572;2023-04-12T09:46:26;10.40;99.90
9542;DHT22;4809;48.224;8.572;2023-04-12T09:48:54;10.50;99.90
9542;DHT22;4809;48.224;8.572;2023-04-12T09:51:31;10.60;99.90
9542;DHT22;4809;48.224;8.572;2023-04-12T09:54:02;10.70;99.90
9542;DHT22;4809;48.224;8.572;2023-04-12T09:56:38;10.80;99.90
9542;DHT22;4809;48.224;8.572;2023-04-12T09:59:06;10.70;99.90
9542;DHT22;4809;48.224;8.572;2023-04-12T10:01:34;10.60;99.90
9542;DHT22;4809;48.224;8.572;2023-04-12T10:04:04;10.60;99.90
9542;DHT22;4809;48.224;8.572;2023-04-12T10:06:32;10.50;99.90
9542;DHT22;4809;48.224;8.572;2023-04-12T10:08:58;10.40;99.90
9542;DHT22;4809;48.224;8.572;2023-04-12T10:11:27;10.40;99.90
9542;DHT22;4809;48.224;8.572;2023-04-12T10:13:55;10.30;99.90
9542;DHT22;4809;48.224;8.572;2023-04-12T10:16:21;10.30;99.90
9542;DHT22;4809;48.224;8.572;2023-04-12T10:18:47;10.30;99.90
9542;DHT22;4809;48.224;8.572;2023-04-12T10:21:14;10.30;99.90
9542;DHT22;4809;48.224;8.572;2023-04-12T10:23:43;10.30;99.90
9542;DHT22;4809;48.224;8.572;2023-04-12T10:26:09;10.20;99.90
9542;DHT22;4809;48.224;8.572;2023-04-12T10:28:35;10.30;99.90
9542;DHT22;4809;48.224;8.572;2023-04-12T10:31:27;10.30;99.90
9542;DHT22;4809;48.224;8.572;2023-04-12T10:33:54;10.20;99.90
9542;DHT22;4809;48.224;8.572;2023-04-12T10:36:53;10.20;99.90
9542;DHT22;4809;48.224;8.572;2023-04-12T10:39:43;10.10;99.90
9542;DHT22;4809;48.224;8.572;2023-04-12T10:44:49;10.00;99.90
9542;DHT22;4809;48.224;8.572;2023-04-12T10:47:54;10.10;99.90
9542;DHT22;4809;48.224;8.572;2023-04-12T10:50:24;10.30;99.90
9542;DHT22;4809;48.224;8.572;2023-04-12T10:55:35;10.60;99.90
9542;DHT22;4809;48.224;8.572;2023-04-12T10:58:02;10.70;99.90
9542;DHT22;4809;48.224;8.572;2023-04-12T11:01:09;10.90;99.90
9542;DHT22;4809;48.224;8.572;2023-04-12T11:03:35;11.20;99.90
9542;DHT22;4809;48.224;8.572;2023-04-12T11:06:02;11.50;99.90
9542;DHT22;4809;48.224;8.572;2023-04-12T11:08:29;11.60;99.90
9542;DHT22;4809;48.224;8.572;2023-04-12T11:11:02;11.50;99.90
9542;DHT22;4809;48.224;8.572;2023-04-12T11:13:28;11.50;99.90
9542;DHT22;4809;48.224;8.572;2023-04-12T11:16:02;11.40;99.90
9542;DHT22;4809;48.224;8.572;2023-04-12T11:18:28;11.30;99.90
9542;DHT22;4809;48.224;8.572;2023-04-12T11:20:54;11.20;99.90
9542;DHT22;4809;48.224;8.572;2023-04-12T11:23:23;11.20;99.90
9542;DHT22;4809;48.224;8.572;2023-04-12T11:25:52;11.20;99.90
9542;DHT22;4809;48.224;8.572;2023-04-12T11:28:19;11.30;99.90
9542;DHT22;4809;48.224;8.572;2023-04-12T11:30:55;11.50;99.90
9542;DHT22;4809;48.224;8.572;2023-04-12T11:33:37;11.50;99.90
9542;DHT22;4809;48.224;8.572;2023-04-12T11:36:08;11.60;99.90
9542;DHT22;4809;48.224;8.572;2023-04-12T11:38:37;11.70;99.90
9542;DHT22;4809;48.224;8.572;2023-04-12T11:41:04;11.70;99.90
9542;DHT22;4809;48.224;8.572;2023-04-12T11:43:35;11.80;99.90
9542;DHT22;4809;48.224;8.572;2023-04-12T11:46:03;11.80;99.90
9542;DHT22;4809;48.224;8.572;2023-04-12T11:48:29;11.90;99.90
9542;DHT22;4809;48.224;8.572;2023-04-12T11:50:55;12.00;99.90
9542;DHT22;4809;48.224;8.572;2023-04-12T11:53:29;12.10;99.90
9542;DHT22;4809;48.224;8.572;2023-04-12T11:55:58;12.40;99.90
9542;DHT22;4809;48.224;8.572;2023-04-12T11:58:27;12.60;99.90
9542;DHT22;4809;48.224;8.572;2023-04-12T12:00:54;12.90;99.90
9542;DHT22;4809;48.224;8.572;2023-04-12T12:03:22;13.10;99.90
9542;DHT22;4809;48.224;8.572;2023-04-12T12:05:48;13.00;99.90
9542;DHT22;4809;48.224;8.572;2023-04-12T12:08:14;13.00;99.90
9542;DHT22;4809;48.224;8.572;2023-04-12T12:10:40;12.70;99.90
9542;DHT22;4809;48.224;8.572;2023-04-12T12:13:10;12.60;99.90
9542;DHT22;4809;48.224;8.572;2023-04-12T12:15:36;12.60;99.90
9542;DHT22;4809;48.224;8.572;2023-04-12T12:18:02;12.70;99.90
9542;DHT22;4809;48.224;8.572;2023-04-12T12:20:27;12.70;99.90
9542;DHT22;4809;48.224;8.572;2023-04-12T12:22:53;12.90;99.90
9542;DHT22;4809;48.224;8.572;2023-04-12T12:25:19;13.40;99.90
9542;DHT22;4809;48.224;8.572;2023-04-12T12:27:45;13.60;99.90
9542;DHT22;4809;48.224;8.572;2023-04-12T12:30:18;14.00;99.90
9542;DHT22;4809;48.224;8.572;2023-04-12T12:32:44;14.30;99.90
9542;DHT22;4809;48.224;8.572;2023-04-12T12:35:12;14.40;99.90
9542;DHT22;4809;48.224;8.572;2023-04-12T12:37:48;14.40;99.90
9542;DHT22;4809;48.224;8.572;2023-04-12T12:40:15;14.30;99.90
9542;DHT22;4809;48.224;8.572;2023-04-12T12:42:48;14.10;99.90
9542;DHT22;4809;48.224;8.572;2023-04-12T12:45:15;13.70;99.90
9542;DHT22;4809;48.224;8.572;2023-04-12T12:47:54;13.20;99.90
9542;DHT22;4809;48.224;8.572;2023-04-12T12:50:26;12.90;99.90
9542;DHT22;4809;48.224;8.572;2023-04-12T12:52:53;12.70;99.90
9542;DHT22;4809;48.224;8.572;2023-04-12T12:55:19;12.60;99.90
9542;DHT22;4809;48.224;8.572;2023-04-12T12:57:46;12.60;99.90
9542;DHT22;4809;48.224;8.572;2023-04-12T13:00:13;12.60;99.90
9542;DHT22;4809;48.224;8.572;2023-04-12T13:02:40;12.60;99.90
9542;DHT22;4809;48.224;8.572;2023-04-12T13:05:06;12.50;99.90
9542;DHT22;4809;48.224;8.572;2023-04-12T13:07:32;12.60;99.90
9542;DHT22;4809;48.224;8.572;2023-04-12T13:09:58;12.80;99.90
9542;DHT22;4809;48.224;8.572;2023-04-12T13:12:24;12.90;99.90
9542;DHT22;4809;48.224;8.572;2023-04-12T13:14:50;12.90;99.90
9542;DHT22;4809;48.224;8.572;2023-04-12T13:17:16;12.90;99.90
9542;DHT22;4809;48.224;8.572;2023-04-12T13:19:45;12.80;99.90
9542;DHT22;4809;48.224;8.572;2023-04-12T13:22:13;12.70;99.90
9542;DHT22;4809;48.224;8.572;2023-04-12T13:24:38;12.60;99.90
9542;DHT22;4809;48.224;8.572;2023-04-12T13:27:04;12.50;99.90
9542;DHT22;4809;48.224;8.572;2023-04-12T13:29:29;12.40;99.90
9542;DHT22;4809;48.224;8.572;2023-04-12T13:31:55;12.40;99.90
9542;DHT22;4809;48.224;8.572;2023-04-12T13:34:21;12.30;99.90
9542;DHT22;4809;48.224;8.572;2023-04-12T13:36:48;12.30;99.90
9542;DHT22;4809;48.224;8.572;2023-04-12T13:39:13;12.30;99.90
9542;DHT22;4809;48.224;8.572;2023-04-12T13:41:39;12.40;99.90
9542;DHT22;4809;48.224;8.572;2023-04-12T13:44:05;12.50;99.90
9542;DHT22;4809;48.224;8.572;2023-04-12T13:46:30;12.50;99.90
9542;DHT22;4809;48.224;8.572;2023-04-12T13:48:56;12.40;99.90
9542;DHT22;4809;48.224;8.572;2023-04-12T13:51:22;12.30;99.90
9542;DHT22;4809;48.224;8.572;2023-04-12T13:53:48;12.30;99.90
9542;DHT22;4809;48.224;8.572;2023-04-12T13:56:13;12.20;99.90
9542;DHT22;4809;48.224;8.572;2023-04-12T13:58:40;12.20;99.90
9542;DHT22;4809;48.224;8.572;2023-04-12T14:01:07;12.20;99.90
9542;DHT22;4809;48.224;8.572;2023-04-12T14:03:33;12.20;99.90
9542;DHT22;4809;48.224;8.572;2023-04-12T14:05:59;12.20;99.90
9542;DHT22;4809;48.224;8.572;2023-04-12T14:08:26;12.10;99.90
9542;DHT22;4809;48.224;8.572;2023-04-12T14:10:52;12.00;99.90
9542;DHT22;4809;48.224;8.572;2023-04-12T14:13:21;12.10;99.90
9542;DHT22;4809;48.224;8.572;2023-04-12T14:15:49;12.10;99.90
9542;DHT22;4809;48.224;8.572;2023-04-12T14:18:16;12.10;99.90
9542;DHT22;4809;48.224;8.572;2023-04-12T14:20:41;12.00;99.90
9542;DHT22;4809;48.224;8.572;2023-04-12T14:23:10;12.00;99.90
9542;DHT22;4809;48.224;8.572;2023-04-12T14:25:38;11.90;99.90
9542;DHT22;4809;48.224;8.572;2023-04-12T14:28:03;11.80;99.90
9542;DHT22;4809;48.224;8.572;2023-04-12T14:30:29;11.70;99.90
9542;DHT22;4809;48.224;8.572;2023-04-12T14:32:55;11.70;99.90
9542;DHT22;4809;48.224;8.572;2023-04-12T14:35:21;11.70;99.90
9542;DHT22;4809;48.224;8.572;2023-04-12T14:37:47;11.70;99.90
9542;DHT22;4809;48.224;8.572;2023-04-12T14:40:12;11.70;99.90
9542;DHT22;4809;48.224;8.572;2023-04-12T14:42:39;11.70;99.90
9542;DHT22;4809;48.224;8.572;2023-04-12T14:45:05;11.60;99.90
9542;DHT22;4809;48.224;8.572;2023-04-12T14:47:32;11.60;99.90
9542;DHT22;4809;48.224;8.572;2023-04-12T14:49:58;11.80;99.90
9542;DHT22;4809;48.224;8.572;2023-04-12T14:52:24;12.00;99.90
9542;DHT22;4809;48.224;8.572;2023-04-12T14:54:50;12.10;99.90
9542;DHT22;4809;48.224;8.572;2023-04-12T14:57:16;12.10;99.90
9542;DHT22;4809;48.224;8.572;2023-04-12T14:59:42;12.00;99.90
9542;DHT22;4809;48.224;8.572;2023-04-12T15:02:07;12.10;99.90
9542;DHT22;4809;48.224;8.572;2023-04-12T15:04:33;12.10;99.90
9542;DHT22;4809;48.224;8.572;2023-04-12T15:06:59;12.10;99.90
9542;DHT22;4809;48.224;8.572;2023-04-12T15:09:24;12.10;99.90
9542;DHT22;4809;48.224;8.572;2023-04-12T15:11:50;12.00;99.90
9542;DHT22;4809;48.224;8.572;2023-04-12T15:14:20;11.80;99.90
9542;DHT22;4809;48.224;8.572;2023-04-12T15:16:46;11.60;99.90
9542;DHT22;4809;48.224;8.572;2023-04-12T15:19:16;11.10;99.90
9542;DHT22;4809;48.224;8.572;2023-04-12T15:21:44;10.60;99.90
9542;DHT22;4809;48.224;8.572;2023-04-12T15:24:11;10.10;99.90
9542;DHT22;4809;48.224;8.572;2023-04-12T15:26:37;9.80;99.90
9542;DHT22;4809;48.224;8.572;2023-04-12T15:29:03;9.60;99.90
9542;DHT22;4809;48.224;8.572;2023-04-12T15:31:28;9.30;99.90
9542;DHT22;4809;48.224;8.572;2023-04-12T15:33:54;9.20;99.90
9542;DHT22;4809;48.224;8.572;2023-04-12T15:36:20;9.10;99.90
9542;DHT22;4809;48.224;8.572;2023-04-12T15:38:46;8.90;99.90
9542;DHT22;4809;48.224;8.572;2023-04-12T15:41:12;8.70;99.90
9542;DHT22;4809;48.224;8.572;2023-04-12T15:43:37;8.60;99.90
9542;DHT22;4809;48.224;8.572;2023-04-12T15:46:03;8.40;99.90
9542;DHT22;4809;48.224;8.572;2023-04-12T15:48:29;8.40;99.90
9542;DHT22;4809;48.224;8.572;2023-04-12T15:50:55;8.30;99.90
9542;DHT22;4809;48.224;8.572;2023-04-12T15:53:23;8.30;99.90
9542;DHT22;4809;48.224;8.572;2023-04-12T15:55:49;8.20;99.90
9542;DHT22;4809;48.224;8.572;2023-04-12T15:58:23;8.20;99.90
9542;DHT22;4809;48.224;8.572;2023-04-12T16:00:49;8.20;99.90
9542;DHT22;4809;48.224;8.572;2023-04-12T16:03:17;8.20;99.90
9542;DHT22;4809;48.224;8.572;2023-04-12T16:05:44;8.20;99.90
9542;DHT22;4809;48.224;8.572;2023-04-12T16:08:10;8.20;99.90
9542;DHT22;4809;48.224;8.572;2023-04-12T16:10:35;8.10;99.90
9542;DHT22;4809;48.224;8.572;2023-04-12T16:13:03;8.10;99.90
9542;DHT22;4809;48.224;8.572;2023-04-12T16:15:34;8.20;99.90
9542;DHT22;4809;48.224;8.572;2023-04-12T16:18:00;8.20;99.90
9542;DHT22;4809;48.224;8.572;2023-04-12T16:20:27;8.20;99.90
9542;DHT22;4809;48.224;8.572;2023-04-12T16:22:53;8.20;99.90
9542;DHT22;4809;48.224;8.572;2023-04-12T16:25:20;8.20;99.90
9542;DHT22;4809;48.224;8.572;2023-04-12T16:27:46;8.20;99.90
9542;DHT22;4809;48.224;8.572;2023-04-12T16:30:13;8.20;99.90